Main page
METAR-TAF:

METAR-TAF

Airports :

Frederick Regional Airport

Frederick, Oklahoma, United States

latitude: 34-20-40N, longitude: 098-58-59W, elevation: 1253 ft

Current weather observation

The report was made 7 minutes ago, at 02:53 UTC
Wind 14 mph from the East
Temperature 88°F
Humidity 55%
Pressure 29.69 in. Hg
Visibility: 10 miles
Clear sky

METAR: KFDR 240253Z AUTO 09012KT 10SM CLR 31/21 A2969 RMK AO2 LTG DSNT E TSB02E17 SLP032 T03110206 53010

Time: 22:00 (03:00 UTC)


TAF: missing

Weather observations and forecasts of more than 4000 airports (METAR and TAF reports).

The available stations are represented by yellow and red dots on the map.

Hover mouse over dot to see the name of the station.

Then click to see weather observations and forecasts.

To change the map : click on the green buttons with a black cross to zoom in, on the green button with a dash to zoom out, or on the green arrows for adjacent maps.


METAR-TAF: